Time;durP1;ratioP1;P1;durP2;ratioP2;P2;SDS_P1;SDS_P2;PMS_P1;PMS_P2;Temp;Humidity;BMP_temperature;BMP_pressure;BME280_temperature;BME280_humidity;BME280_pressure;Samples;Min_cycle;Max_cycle;Signal;HPM_P1;HPM_P2
2022/02/07 00:00:06;;;;;;;22.90;5.65;;;;;;;5.04;100.00;101583.06;5005340;28;20053;-84
2022/02/07 00:03:01;;;;;;;18.02;4.43;;;;;;;5.38;100.00;101622.25;5004858;28;20052;-83
2022/02/07 00:05:28;;;;;;;19.17;4.63;;;;;;;5.44;100.00;101635.94;4987117;28;20037;-82
2022/02/07 00:07:54;;;;;;;21.83;4.25;;;;;;;5.43;100.00;101642.25;4990221;28;20041;-81
2022/02/07 00:10:29;;;;;;;11.93;4.40;;;;;;;5.53;100.00;101670.84;4992172;28;20490;-84
2022/02/07 00:12:55;;;;;;;21.92;5.13;;;;;;;5.48;100.00;101649.91;5010022;28;20034;-83
2022/02/07 00:15:23;;;;;;;14.45;4.20;;;;;;;5.54;100.00;101665.41;5008784;28;20125;-84
2022/02/07 00:17:49;;;;;;;20.58;5.32;;;;;;;5.52;100.00;101662.00;4989659;28;20055;-84
2022/02/07 00:20:18;;;;;;;24.88;6.05;;;;;;;5.55;100.00;101672.44;4991471;28;20038;-81
2022/02/07 00:22:44;;;;;;;13.40;3.33;;;;;;;5.57;100.00;101670.50;4984889;28;20048;-83
2022/02/07 00:25:10;;;;;;;15.13;3.25;;;;;;;5.60;100.00;101682.75;4974607;28;20495;-84
2022/02/07 00:27:37;;;;;;;19.40;3.92;;;;;;;5.58;100.00;101682.00;4974987;28;20065;-83
2022/02/07 00:30:05;;;;;;;15.85;3.20;;;;;;;5.57;100.00;101686.50;5002206;28;20110;-86
2022/02/07 00:32:31;;;;;;;9.65;2.90;;;;;;;5.37;100.00;101669.41;4976115;28;20076;-83
2022/02/07 00:34:56;;;;;;;18.27;4.13;;;;;;;5.30;100.00;101678.84;4985858;28;20057;-85
2022/02/07 00:37:24;;;;;;;12.10;4.90;;;;;;;5.24;100.00;101687.34;4958333;28;20384;-84
2022/02/07 00:39:57;;;;;;;17.90;4.40;;;;;;;5.09;100.00;101684.00;5015742;28;20034;-85
2022/02/07 00:42:39;;;;;;;15.97;4.40;;;;;;;5.00;100.00;101687.38;4981803;28;20060;-85
2022/02/07 00:45:24;;;;;;;13.98;3.63;;;;;;;4.91;100.00;101688.91;4964992;28;20026;-81
2022/02/07 00:47:50;;;;;;;11.48;2.10;;;;;;;4.73;100.00;101691.16;4989627;28;20030;-85
2022/02/07 00:50:15;;;;;;;9.55;3.10;;;;;;;4.78;100.00;101698.81;5005508;28;20369;-82
2022/02/07 00:52:41;;;;;;;13.00;3.20;;;;;;;4.79;100.00;101696.03;4967200;28;20517;-84
2022/02/07 00:55:09;;;;;;;13.05;3.47;;;;;;;4.77;100.00;101692.63;4987449;28;20096;-83
2022/02/07 00:57:35;;;;;;;12.80;2.88;;;;;;;4.62;100.00;101677.78;4960062;28;20079;-84
2022/02/07 01:00:00;;;;;;;15.02;2.58;;;;;;;4.69;100.00;101684.38;4975480;28;20060;-81
2022/02/07 01:02:28;;;;;;;18.83;3.25;;;;;;;4.76;100.00;101692.75;4977834;28;20510;-87
2022/02/07 01:04:54;;;;;;;15.05;2.55;;;;;;;4.66;100.00;101681.06;4971253;28;20030;-84
2022/02/07 01:07:20;;;;;;;16.67;3.88;;;;;;;4.61;100.00;101695.59;4985192;28;20365;-83
2022/02/07 01:09:51;;;;;;;15.95;2.40;;;;;;;4.59;100.00;101691.34;5008256;28;20113;-82
2022/02/07 01:15:00;;;;;;;18.10;2.40;;;;;;;4.46;100.00;101688.72;4979175;28;20037;-84
2022/02/07 01:57:56;;;;;;;11.15;4.25;;;;;;;4.87;100.00;101665.28;5000413;28;20025;-84
2022/02/07 02:00:23;;;;;;;20.08;3.17;;;;;;;4.91;100.00;101672.94;4997467;28;20124;-81
2022/02/07 02:02:48;;;;;;;24.05;3.85;;;;;;;4.89;100.00;101660.69;4995877;28;20038;-85
2022/02/07 02:05:15;;;;;;;19.98;3.50;;;;;;;4.96;100.00;101672.59;4967589;28;20486;-82
2022/02/07 02:07:41;;;;;;;23.48;3.92;;;;;;;5.00;100.00;101666.91;4985838;28;20041;-84
2022/02/07 02:10:08;;;;;;;17.35;3.55;;;;;;;5.01;100.00;101649.94;4970097;28;20094;-83
2022/02/07 02:12:40;;;;;;;25.02;4.03;;;;;;;5.09;100.00;101656.50;5016778;28;20516;-82
2022/02/07 02:15:29;;;;;;;28.70;5.45;;;;;;;5.11;100.00;101660.75;4984976;28;20075;-83
2022/02/07 02:47:34;;;;;;;19.98;3.78;;;;;;;5.78;100.00;101643.09;4978009;28;20030;-80
2022/02/07 02:50:07;;;;;;;22.73;4.00;;;;;;;5.80;100.00;101644.66;4993043;28;20072;-86
2022/02/07 02:52:32;;;;;;;21.02;4.53;;;;;;;5.81;100.00;101642.84;4992748;28;20109;-83
2022/02/07 02:54:58;;;;;;;9.02;3.05;;;;;;;5.86;100.00;101632.63;4977106;28;20116;-85
2022/02/07 02:57:24;;;;;;;18.13;3.90;;;;;;;5.88;100.00;101626.22;4991435;28;20496;-83
2022/02/07 02:59:49;;;;;;;22.08;4.68;;;;;;;5.90;100.00;101624.28;4993006;28;20471;-82
2022/02/07 03:02:15;;;;;;;23.40;3.65;;;;;;;5.94;100.00;101631.06;4974748;28;20037;-85
2022/02/07 03:04:40;;;;;;;22.30;3.33;;;;;;;5.96;100.00;101622.09;4992361;28;20030;-83
2022/02/07 03:07:09;;;;;;;24.98;3.80;;;;;;;5.94;100.00;101614.22;4975898;28;20561;-85
2022/02/07 03:09:34;;;;;;;8.10;2.45;;;;;;;6.05;100.00;101613.34;4959002;28;20128;-83
2022/02/07 03:12:00;;;;;;;13.00;2.85;;;;;;;6.10;100.00;101620.00;4959686;28;20462;-85
2022/02/07 03:14:36;;;;;;;15.38;3.38;;;;;;;6.11;100.00;101604.81;4978386;28;20102;-83
2022/02/07 03:17:02;;;;;;;9.65;2.38;;;;;;;6.19;100.00;101609.53;4976577;28;20049;-83
2022/02/07 03:19:28;;;;;;;18.38;3.25;;;;;;;6.22;100.00;101598.59;4989254;28;20048;-81
2022/02/07 03:21:57;;;;;;;16.88;3.45;;;;;;;6.24;100.00;101607.31;5009868;28;20175;-85
2022/02/07 03:24:22;;;;;;;7.30;2.00;;;;;;;6.25;100.00;101582.34;4958684;28;20520;-83
2022/02/07 03:26:48;;;;;;;16.38;2.90;;;;;;;6.32;100.00;101602.19;4975831;28;20030;-85
2022/02/07 03:29:15;;;;;;;15.38;4.18;;;;;;;6.32;100.00;101602.19;5004990;28;20034;-84
2022/02/07 03:31:46;;;;;;;23.52;3.33;;;;;;;6.43;100.00;101628.88;5010245;28;20038;-82
2022/02/07 03:34:14;;;;;;;14.38;2.75;;;;;;;6.46;100.00;101644.66;4960908;28;20033;-82
2022/02/07 03:36:40;;;;;;;14.25;3.25;;;;;;;6.52;100.00;101657.50;4975853;28;20048;-84
2022/02/07 03:39:06;;;;;;;17.55;2.97;;;;;;;6.57;100.00;101665.97;4975014;28;20037;-84
2022/02/07 03:41:32;;;;;;;15.13;3.78;;;;;;;6.58;100.00;101673.00;5003014;28;20052;-83
2022/02/07 03:43:57;;;;;;;11.18;3.30;;;;;;;6.63;100.00;101677.13;4988760;28;20052;-83
2022/02/07 03:46:23;;;;;;;17.63;3.17;;;;;;;6.62;100.00;101670.09;4960452;28;20073;-86
2022/02/07 03:48:49;;;;;;;20.08;4.75;;;;;;;6.60;100.00;101665.72;4972735;28;20042;-83
2022/02/07 03:51:14;;;;;;;11.43;2.42;;;;;;;6.59;100.00;101661.38;4971855;28;20427;-87
2022/02/07 03:53:40;;;;;;;12.13;2.63;;;;;;;6.66;100.00;101664.34;5007042;28;20379;-87
2022/02/07 03:56:06;;;;;;;16.20;2.70;;;;;;;6.74;100.00;101666.38;4972589;28;20125;-86
2022/02/07 03:58:32;;;;;;;10.13;2.75;;;;;;;6.79;100.00;101664.19;4973807;28;20046;-85
2022/02/07 04:01:00;;;;;;;5.88;1.60;;;;;;;6.77;100.00;101647.41;4993688;28;20052;-84
2022/02/07 04:03:29;;;;;;;7.30;1.90;;;;;;;6.83;100.00;101654.94;4977025;28;20038;-86
2022/02/07 04:06:01;;;;;;;8.45;2.40;;;;;;;6.85;100.00;101644.09;4977249;28;20608;-85
2022/02/07 04:08:34;;;;;;;4.85;1.65;;;;;;;6.84;100.00;101629.88;4975099;28;20034;-85
2022/02/07 04:13:51;;;;;;;3.33;1.55;;;;;;;6.90;100.00;101631.19;4978882;28;20148;-84
2022/02/07 04:16:17;;;;;;;3.60;1.02;;;;;;;6.93;100.00;101639.81;5000522;28;20046;-85
2022/02/07 04:19:03;;;;;;;2.95;1.23;;;;;;;6.95;100.00;101635.16;4978564;28;20049;-87
2022/02/07 04:21:30;;;;;;;4.07;1.08;;;;;;;6.96;100.00;101625.31;4979501;28;20033;-82
2022/02/07 04:23:56;;;;;;;0.98;0.82;;;;;;;7.04;100.00;101639.75;4985241;28;20040;-86
2022/02/07 04:26:22;;;;;;;2.38;1.00;;;;;;;7.10;100.00;101643.72;5003347;28;20158;-83
2022/02/07 04:28:47;;;;;;;3.97;1.15;;;;;;;7.09;100.00;101641.16;4978285;28;20069;-86
2022/02/07 04:31:13;;;;;;;3.22;1.50;;;;;;;7.15;100.00;101657.53;4995249;28;20049;-83
2022/02/07 04:33:39;;;;;;;3.08;2.38;;;;;;;7.13;100.00;101642.59;4992267;28;20037;-86
2022/02/07 04:36:05;;;;;;;1.20;0.80;;;;;;;7.13;100.00;101637.25;5006911;28;20022;-83
2022/02/07 04:38:33;;;;;;;0.50;0.50;;;;;;;7.24;100.00;101645.19;4974732;28;20042;-84
2022/02/07 04:40:59;;;;;;;0.50;0.50;;;;;;;7.32;100.00;101644.53;5009395;28;20029;-84
2022/02/07 04:43:24;;;;;;;6.60;0.77;;;;;;;7.33;100.00;101646.22;4972505;28;20030;-86
2022/02/07 04:46:10;;;;;;;0.40;0.40;;;;;;;7.39;100.00;101651.06;4969537;28;20472;-83
2022/02/07 05:01:34;;;;;;;0.40;0.40;;;;;;;7.48;100.00;101645.72;4980469;28;20050;-85
2022/02/07 05:04:07;;;;;;;0.70;0.70;;;;;;;7.53;100.00;101650.69;4982531;28;20033;-81
2022/02/07 05:14:49;;;;;;;0.40;0.40;;;;;;;7.52;100.00;101640.13;5003984;28;20038;-85
2022/02/07 05:17:16;;;;;;;0.40;0.40;;;;;;;7.57;100.00;101643.22;4971234;28;20039;-85
2022/02/07 05:19:42;;;;;;;0.40;0.40;;;;;;;7.53;100.00;101631.13;5007725;28;20511;-84
2022/02/07 05:22:08;;;;;;;0.40;0.40;;;;;;;7.65;100.00;101654.16;4992525;28;20049;-84
2022/02/07 05:24:33;;;;;;;0.40;0.40;;;;;;;7.66;100.00;101654.00;4971839;28;20033;-84
2022/02/07 05:26:59;;;;;;;0.43;0.43;;;;;;;7.55;100.00;101626.50;4957887;28;20492;-87
2022/02/07 05:29:25;;;;;;;0.40;0.40;;;;;;;7.72;100.00;101649.91;5006080;28;20148;-87
2022/02/07 05:31:52;;;;;;;0.40;0.40;;;;;;;7.72;100.00;101644.56;4985368;28;20312;-83
2022/02/07 05:34:17;;;;;;;0.50;0.50;;;;;;;7.72;100.00;101637.38;4973202;28;20026;-87
2022/02/07 05:36:45;;;;;;;0.40;0.40;;;;;;;7.84;100.00;101648.00;5005971;28;20532;-88
2022/02/07 05:39:17;;;;;;;0.40;0.40;;;;;;;7.92;100.00;101649.00;4961292;28;20060;-87
2022/02/07 05:41:43;;;;;;;0.40;0.40;;;;;;;7.98;100.00;101652.97;4969400;28;20541;-84
2022/02/07 05:44:09;;;;;;;0.40;0.40;;;;;;;8.07;100.00;101653.97;4975955;28;20042;-85
2022/02/07 05:46:35;;;;;;;0.45;0.45;;;;;;;8.17;100.00;101657.50;4988819;28;20042;-83
2022/02/07 05:49:00;;;;;;;0.40;0.40;;;;;;;8.22;100.00;101659.78;4985612;28;20499;-86
2022/02/07 05:51:26;;;;;;;0.40;0.40;;;;;;;8.29;100.00;101663.63;5006265;28;20480;-83
2022/02/07 05:53:52;;;;;;;0.43;0.43;;;;;;;8.38;100.00;101660.09;4958040;28;20034;-83
2022/02/07 05:56:17;;;;;;;0.40;0.40;;;;;;;8.41;100.00;101659.00;4990359;28;20044;-84
2022/02/07 05:58:43;;;;;;;0.45;0.45;;;;;;;8.43;100.00;101659.72;4989897;28;20030;-84
2022/02/07 06:01:12;;;;;;;0.40;0.40;;;;;;;8.53;100.00;101664.09;4991072;28;20025;-84
2022/02/07 06:03:39;;;;;;;0.40;0.40;;;;;;;8.57;100.00;101662.84;4981478;28;20381;-85
2022/02/07 06:06:04;;;;;;;0.40;0.40;;;;;;;8.59;100.00;101652.78;4968947;28;20528;-87
2022/02/07 06:08:32;;;;;;;0.40;0.40;;;;;;;8.68;100.00;101660.97;4983300;28;20030;-83
2022/02/07 06:11:00;;;;;;;0.40;0.40;;;;;;;8.83;100.00;101670.28;4976063;28;20061;-87
2022/02/07 06:13:26;;;;;;;0.40;0.40;;;;;;;8.86;100.00;101650.38;4994484;28;20041;-83
2022/02/07 06:15:52;;;;;;;0.47;0.47;;;;;;;9.03;100.00;101671.13;4976260;28;20369;-85
2022/02/07 06:18:19;;;;;;;0.40;0.40;;;;;;;9.17;100.00;101667.16;4958479;28;20056;-83
2022/02/07 06:20:45;;;;;;;0.50;0.50;;;;;;;9.27;100.00;101669.81;4994555;28;20030;-86
2022/02/07 06:23:10;;;;;;;0.60;0.60;;;;;;;9.43;100.00;101664.69;4986065;28;20026;-85
2022/02/07 06:25:36;;;;;;;0.50;0.50;;;;;;;9.54;100.00;101667.19;4981143;28;20018;-86
2022/02/07 06:28:02;;;;;;;0.40;0.40;;;;;;;9.62;100.00;101667.28;4973931;28;20041;-86
2022/02/07 06:30:27;;;;;;;0.40;0.40;;;;;;;9.67;100.00;101672.22;4991721;28;20100;-86
2022/02/07 06:32:53;;;;;;;0.50;0.50;;;;;;;9.72;100.00;101663.72;4957661;28;20517;-86
2022/02/07 06:35:19;;;;;;;0.50;0.50;;;;;;;9.74;100.00;101654.53;4980580;28;20080;-85
2022/02/07 06:37:44;;;;;;;0.50;0.50;;;;;;;9.73;100.00;101652.81;4990747;28;20121;-86
2022/02/07 06:40:10;;;;;;;0.40;0.40;;;;;;;9.78;100.00;101660.44;4975684;28;20026;-87
2022/02/07 06:42:36;;;;;;;0.47;0.47;;;;;;;9.75;100.00;101647.31;4989916;28;20037;-86
2022/02/07 06:45:04;;;;;;;0.40;0.40;;;;;;;9.80;100.00;101664.69;4958023;28;20046;-88
2022/02/07 06:47:29;;;;;;;0.40;0.40;;;;;;;9.77;100.00;101662.28;4987791;28;20104;-86
2022/02/07 06:49:55;;;;;;;0.40;0.40;;;;;;;9.80;100.00;101667.38;4976109;28;20034;-85
2022/02/07 06:52:21;;;;;;;0.40;0.40;;;;;;;9.76;100.00;101663.25;4974708;28;20042;-88
2022/02/07 06:54:46;;;;;;;0.40;0.40;;;;;;;9.79;100.00;101667.50;5006143;28;20030;-87
2022/02/07 06:57:14;;;;;;;0.40;0.40;;;;;;;9.80;100.00;101671.91;5006784;28;20018;-88
2022/02/07 06:59:41;;;;;;;0.45;0.45;;;;;;;9.79;100.00;101662.13;4972899;28;20044;-84
2022/02/07 07:02:08;;;;;;;0.40;0.40;;;;;;;9.80;100.00;101679.94;4985766;28;20547;-86
2022/02/07 07:04:34;;;;;;;0.50;0.50;;;;;;;9.79;100.00;101678.25;4989343;28;20029;-86
2022/02/07 07:06:59;;;;;;;0.50;0.50;;;;;;;9.64;100.00;101653.72;5003835;28;20045;-81
2022/02/07 07:09:25;;;;;;;0.40;0.40;;;;;;;9.76;100.00;101675.84;4956233;28;20038;-86
2022/02/07 07:11:53;;;;;;;0.50;0.50;;;;;;;9.73;100.00;101677.00;4988392;28;20037;-87
2022/02/07 07:14:30;;;;;;;0.40;0.40;;;;;;;9.66;100.00;101668.69;4972512;28;20437;-85
2022/02/07 07:16:58;;;;;;;0.43;0.43;;;;;;;9.73;100.00;101679.69;4988191;28;20022;-83
2022/02/07 07:19:26;;;;;;;0.50;0.50;;;;;;;9.73;100.00;101670.78;4985836;28;20126;-87
2022/02/07 07:21:53;;;;;;;0.50;0.50;;;;;;;9.78;100.00;101677.41;4993077;28;20482;-83
2022/02/07 07:24:18;;;;;;;2.63;0.85;;;;;;;9.82;100.00;101692.25;4978932;28;20067;-84
2022/02/07 07:26:47;;;;;;;0.60;0.60;;;;;;;9.85;100.00;101685.72;4970166;28;20628;-85
2022/02/07 07:29:21;;;;;;;0.40;0.40;;;;;;;9.85;100.00;101675.81;4972142;28;20109;-85
2022/02/07 07:31:51;;;;;;;4.63;1.13;;;;;;;9.89;100.00;101673.69;4976976;28;20033;-85
2022/02/07 07:34:18;;;;;;;0.45;0.45;;;;;;;9.89;100.00;101689.78;4985224;28;20070;-85
2022/02/07 07:36:45;;;;;;;0.50;0.50;;;;;;;9.89;100.00;101690.63;5014088;28;20072;-85
2022/02/07 07:39:15;;;;;;;0.40;0.40;;;;;;;9.87;100.00;101689.97;4997013;28;20037;-83
2022/02/07 07:41:41;;;;;;;3.22;1.00;;;;;;;9.87;100.00;101695.34;4960752;28;20109;-85
2022/02/07 07:44:10;;;;;;;7.20;3.95;;;;;;;9.87;100.00;101702.53;4966387;28;20040;-84
2022/02/07 07:46:37;;;;;;;0.73;0.60;;;;;;;9.88;100.00;101699.69;4992985;28;20030;-84
2022/02/07 07:49:10;;;;;;;0.40;0.40;;;;;;;9.86;100.00;101707.06;4992521;28;20022;-85
2022/02/07 08:02:31;;;;;;;1.10;1.00;;;;;;;9.73;100.00;101736.09;5007526;28;20033;-82
2022/02/07 08:04:58;;;;;;;1.08;0.57;;;;;;;9.77;100.00;101745.56;4986936;28;20038;-86
2022/02/07 08:07:32;;;;;;;0.40;0.40;;;;;;;9.73;100.00;101743.31;4993001;28;20025;-84
2022/02/07 08:12:26;;;;;;;0.40;0.40;;;;;;;9.74;100.00;101759.28;4987292;28;22315;-87
2022/02/07 08:14:52;;;;;;;0.40;0.40;;;;;;;9.69;100.00;101762.41;4974597;28;22506;-85
2022/02/07 08:17:21;;;;;;;0.43;0.40;;;;;;;9.72;100.00;101779.22;4989570;28;20059;-83
2022/02/07 08:19:48;;;;;;;1.58;0.60;;;;;;;9.71;100.00;101775.66;4971431;28;20041;-86
2022/02/07 08:22:14;;;;;;;0.40;0.40;;;;;;;9.68;100.00;101782.19;4984716;28;20077;-85
2022/02/07 08:24:40;;;;;;;0.40;0.40;;;;;;;9.66;100.00;101778.81;4979011;28;20080;-87
2022/02/07 08:27:07;;;;;;;0.68;0.40;;;;;;;9.62;100.00;101769.34;4972832;28;20041;-86
2022/02/07 08:29:32;;;;;;;0.57;0.50;;;;;;;9.59;100.00;101783.06;4974402;28;20037;-86
2022/02/07 08:31:58;;;;;;;0.50;0.50;;;;;;;9.48;100.00;101766.28;4973013;28;20061;-85
2022/02/07 08:34:24;;;;;;;0.40;0.40;;;;;;;9.52;100.00;101773.88;4984855;28;20723;-85
2022/02/07 08:36:52;;;;;;;0.50;0.50;;;;;;;9.46;100.00;101769.91;4982092;28;20443;-84
2022/02/07 08:39:18;;;;;;;0.40;0.40;;;;;;;9.49;100.00;101776.84;4988568;28;20033;-85
2022/02/07 08:41:44;;;;;;;0.40;0.40;;;;;;;9.46;100.00;101782.50;4987925;28;20104;-86
2022/02/07 08:44:09;;;;;;;0.50;0.50;;;;;;;9.48;100.00;101787.75;4988233;28;20438;-83
2022/02/07 08:46:35;;;;;;;0.50;0.50;;;;;;;9.38;100.00;101777.84;4984645;28;20041;-86
2022/02/07 08:49:04;;;;;;;4.85;0.93;;;;;;;9.46;100.00;101795.94;4957751;28;20033;-86
2022/02/07 08:51:32;;;;;;;0.68;0.68;;;;;;;9.42;100.00;101790.00;4989619;28;20064;-84
2022/02/07 08:54:03;;;;;;;0.60;0.60;;;;;;;9.47;100.00;101792.25;4984414;28;20029;-84
2022/02/07 08:56:40;;;;;;;0.57;0.57;;;;;;;9.34;100.00;101775.59;4988619;28;20076;-86
2022/02/07 08:59:06;;;;;;;0.50;0.50;;;;;;;9.43;100.00;101790.84;4975420;28;20037;-87
2022/02/07 09:01:44;;;;;;;0.40;0.40;;;;;;;9.45;100.00;101792.41;5005122;28;20083;-86
2022/02/07 09:07:07;;;;;;;0.50;0.50;;;;;;;9.47;100.00;101800.28;4990927;28;20044;-82
2022/02/07 09:09:33;;;;;;;0.50;0.50;;;;;;;9.41;100.00;101796.34;4972349;28;20369;-87
2022/02/07 09:11:59;;;;;;;0.50;0.50;;;;;;;9.42;100.00;101805.25;4975242;28;20045;-84
2022/02/07 09:14:25;;;;;;;0.93;0.68;;;;;;;9.44;100.00;101795.22;4975944;28;20030;-84
2022/02/07 09:16:52;;;;;;;0.40;0.40;;;;;;;9.46;100.00;101803.97;4987260;28;20029;-86
2022/02/07 09:19:20;;;;;;;0.50;0.50;;;;;;;9.43;100.00;101804.28;5005988;28;20034;-87
2022/02/07 09:21:47;;;;;;;0.40;0.40;;;;;;;9.39;100.00;101787.63;4971920;28;20045;-86
2022/02/07 09:24:13;;;;;;;0.50;0.50;;;;;;;9.44;100.00;101797.91;4974977;28;20030;-87
2022/02/07 09:26:39;;;;;;;0.40;0.40;;;;;;;9.53;100.00;101804.28;4987506;28;20396;-83
2022/02/07 09:29:04;;;;;;;0.40;0.40;;;;;;;9.60;100.00;101803.53;4981071;28;20036;-87
2022/02/07 09:31:33;;;;;;;0.40;0.40;;;;;;;9.63;100.00;101797.03;4957746;28;20048;-85
2022/02/07 09:33:58;;;;;;;0.50;0.50;;;;;;;9.71;100.00;101799.81;4989311;28;20480;-88
2022/02/07 09:36:25;;;;;;;0.50;0.50;;;;;;;9.81;100.00;101808.72;4991168;28;20041;-85
2022/02/07 09:38:51;;;;;;;0.45;0.45;;;;;;;9.71;100.00;101778.34;4988093;28;20033;-88
2022/02/07 09:41:18;;;;;;;0.40;0.40;;;;;;;9.89;100.00;101808.00;4959360;28;20046;-87
2022/02/07 09:43:48;;;;;;;0.52;0.52;;;;;;;9.90;100.00;101813.22;4978654;28;20476;-87
2022/02/07 09:46:21;;;;;;;0.47;0.47;;;;;;;9.79;100.00;101791.06;4997755;28;20119;-87
2022/02/07 09:48:51;;;;;;;0.47;0.47;;;;;;;9.77;100.00;101804.66;5011197;28;20053;-87
2022/02/07 09:51:17;;;;;;;0.40;0.40;;;;;;;9.71;100.00;101789.09;4960681;28;20034;-88
2022/02/07 09:53:43;;;;;;;0.50;0.50;;;;;;;9.74;100.00;101804.06;4999558;28;20270;-87
2022/02/07 09:56:11;;;;;;;0.50;0.50;;;;;;;9.78;100.00;101803.63;4972405;28;20045;-87
2022/02/07 09:58:38;;;;;;;0.45;0.45;;;;;;;9.83;100.00;101804.06;4971082;28;20049;-87
2022/02/07 10:01:12;;;;;;;0.40;0.40;;;;;;;9.89;100.00;101803.47;4999925;28;20486;-88
2022/02/07 10:03:47;;;;;;;0.50;0.50;;;;;;;9.92;100.00;101805.00;4974391;28;20040;-87
2022/02/07 10:06:28;;;;;;;0.50;0.50;;;;;;;9.92;100.00;101799.63;4985947;28;20025;-88
2022/02/07 10:11:54;;;;;;;0.50;0.50;;;;;;;9.88;100.00;101807.16;4991291;28;20030;-86
2022/02/07 10:14:26;;;;;;;0.60;0.60;;;;;;;9.89;100.00;101800.78;4993501;28;20126;-86
2022/02/07 10:17:19;;;;;;;0.50;0.50;;;;;;;9.94;100.00;101799.50;5001058;28;20044;-86
2022/02/07 10:36:26;;;;;;;0.80;0.80;;;;;;;10.03;100.00;101837.09;4996214;28;20052;-90
2022/02/07 10:44:46;;;;;;;2.83;0.90;;;;;;;9.78;100.00;101814.38;4983840;28;20042;-89
2022/02/07 10:49:37;;;;;;;0.70;0.70;;;;;;;9.80;100.00;101806.19;4987044;28;20120;-89
2022/02/07 10:52:04;;;;;;;2.40;1.20;;;;;;;10.60;100.00;101806.59;4990269;28;20025;-89
2022/02/07 10:54:30;;;;;;;1.65;0.77;;;;;;;11.94;100.00;101816.44;4974578;28;20097;-89
2022/02/07 10:56:56;;;;;;;1.02;0.70;;;;;;;13.18;100.00;101808.63;4999509;28;20029;-89
2022/02/07 10:59:22;;;;;;;2.38;1.02;;;;;;;12.27;100.00;101793.16;4995142;28;20059;-89
2022/02/07 11:04:29;;;;;;;0.50;0.50;;;;;;;12.22;100.00;101795.50;4978640;28;20043;-90
2022/02/07 11:06:58;;;;;;;1.05;0.70;;;;;;;11.50;100.00;101804.78;5002107;28;20045;-89
2022/02/07 11:09:59;;;;;;;1.38;0.60;;;;;;;11.21;100.00;101816.66;4967301;28;20038;-89
2022/02/07 11:15:13;;;;;;;1.10;0.80;;;;;;;10.79;100.00;101791.19;4994639;28;20550;-88
2022/02/07 11:21:04;;;;;;;0.45;0.45;;;;;;;10.82;100.00;101819.63;4974168;28;20097;-88
2022/02/07 11:26:04;;;;;;;3.22;0.60;;;;;;;10.69;100.00;101822.69;4994800;28;20041;-89
2022/02/07 11:28:39;;;;;;;4.68;1.42;;;;;;;10.33;100.00;101800.25;4986587;28;20030;-89
2022/02/07 11:31:05;;;;;;;4.68;0.93;;;;;;;10.29;100.00;101818.53;4996687;28;20064;-88
2022/02/07 11:33:54;;;;;;;1.80;0.80;;;;;;;10.20;100.00;101795.16;4965957;28;20045;-89
2022/02/07 11:36:33;;;;;;;0.73;0.73;;;;;;;10.23;100.00;101810.16;4983622;28;20049;-87
2022/02/07 11:39:20;;;;;;;1.90;0.85;;;;;;;10.61;100.00;101824.44;4983279;28;20136;-88
2022/02/07 11:42:02;;;;;;;4.13;1.15;;;;;;;11.16;100.00;101841.34;4995827;28;20066;-88
2022/02/07 11:44:53;;;;;;;2.85;1.20;;;;;;;10.84;100.00;101825.72;4978656;28;20040;-89
2022/02/07 11:47:30;;;;;;;0.68;0.65;;;;;;;10.61;100.00;101813.66;4991969;28;20480;-89
2022/02/07 11:50:02;;;;;;;0.50;0.50;;;;;;;10.48;100.00;101808.66;4988077;28;20128;-89
2022/02/07 11:52:45;;;;;;;0.80;0.80;;;;;;;10.23;100.00;101789.50;4988767;28;20057;-87
2022/02/07 11:55:24;;;;;;;0.50;0.50;;;;;;;10.37;100.00;101823.13;4977980;28;20033;-88
2022/02/07 11:57:57;;;;;;;1.23;0.85;;;;;;;10.49;100.00;101831.84;4964104;28;20041;-88
2022/02/07 12:00:30;;;;;;;0.60;0.60;;;;;;;10.57;100.00;101824.72;4973447;28;20037;-88
2022/02/07 12:03:01;;;;;;;1.97;1.20;;;;;;;10.45;100.00;101796.38;4995703;28;20037;-88
2022/02/07 12:05:30;;;;;;;2.75;0.90;;;;;;;10.47;100.00;101799.72;4993507;28;20136;-88
2022/02/07 12:08:05;;;;;;;0.50;0.50;;;;;;;10.62;100.00;101818.91;4994377;28;20033;-88
2022/02/07 12:13:03;;;;;;;2.50;1.13;;;;;;;10.59;100.00;101813.00;4997473;28;20698;-88
2022/02/07 12:15:45;;;;;;;0.65;0.65;;;;;;;10.54;100.00;101821.50;4982184;28;20039;-88
2022/02/07 12:18:13;;;;;;;3.75;1.08;;;;;;;10.54;100.00;101814.28;4984611;28;20036;-88
2022/02/07 12:20:42;;;;;;;1.33;1.23;;;;;;;10.52;100.00;101816.25;4997687;28;20042;-87
2022/02/07 12:23:17;;;;;;;0.52;0.52;;;;;;;10.40;100.00;101784.34;4994859;28;20103;-88
2022/02/07 12:25:46;;;;;;;6.07;1.33;;;;;;;10.50;100.00;101799.44;5003785;28;20117;-88
2022/02/07 12:28:31;;;;;;;2.45;1.50;;;;;;;10.55;100.00;101807.88;4995706;28;20034;-88
2022/02/07 12:33:27;;;;;;;1.33;1.00;;;;;;;10.55;100.00;101781.00;4970760;28;20041;-88
2022/02/07 12:35:57;;;;;;;1.13;0.80;;;;;;;10.72;100.00;101805.41;4990799;28;20030;-89
2022/02/07 12:38:25;;;;;;;5.72;1.85;;;;;;;10.44;100.00;101759.69;4977299;28;20472;-88
2022/02/07 12:40:52;;;;;;;2.15;1.10;;;;;;;10.70;100.00;101781.34;4987750;28;20056;-88
2022/02/07 12:43:24;;;;;;;4.35;1.55;;;;;;;10.84;100.00;101761.13;4973002;28;20481;-89
2022/02/07 12:45:51;;;;;;;1.52;1.42;;;;;;;11.01;100.00;101759.47;4981020;28;20033;-88
2022/02/07 12:48:26;;;;;;;5.43;2.00;;;;;;;11.18;100.00;101757.75;4951644;28;20042;-88
2022/02/07 12:50:53;;;;;;;0.50;0.50;;;;;;;11.53;100.00;101761.38;4981423;28;20037;-88
2022/02/07 12:53:23;;;;;;;1.45;1.08;;;;;;;11.61;100.00;101769.50;4987236;28;20022;-88
2022/02/07 12:55:55;;;;;;;1.17;0.82;;;;;;;11.42;100.00;101768.72;4978421;28;20050;-88
2022/02/07 12:58:45;;;;;;;1.10;0.68;;;;;;;11.49;100.00;101763.56;4985633;28;20041;-87
2022/02/07 13:01:29;;;;;;;3.15;1.80;;;;;;;11.29;100.00;101744.03;4965303;28;20119;-87
2022/02/07 13:04:07;;;;;;;0.68;0.65;;;;;;;11.26;100.00;101771.28;4978134;28;20037;-88
2022/02/07 13:06:39;;;;;;;3.30;1.15;;;;;;;11.41;100.00;101785.88;4975449;28;20511;-88
2022/02/07 13:09:12;;;;;;;;;;;;;;;11.47;100.00;101772.78;4974975;28;20176;-88
2022/02/07 13:11:44;;;;;;;6.53;1.90;;;;;;;11.36;100.00;101765.81;4993879;28;19921;-88
2022/02/07 13:14:14;;;;;;;4.20;2.50;;;;;;;11.26;100.00;101765.88;4987801;28;20091;-87
2022/02/07 13:16:39;;;;;;;2.55;1.30;;;;;;;11.23;100.00;101761.66;4981137;28;20030;-88
2022/02/07 13:19:12;;;;;;;1.75;1.05;;;;;;;11.35;100.00;101759.59;4977170;28;20041;-86
2022/02/07 13:21:41;;;;;;;5.23;1.40;;;;;;;11.27;100.00;101746.03;4959472;28;20035;-88
2022/02/07 13:24:12;;;;;;;8.25;1.73;;;;;;;11.27;100.00;101748.72;4961217;28;20030;-88
2022/02/07 13:26:38;;;;;;;15.02;3.05;;;;;;;11.20;100.00;101718.06;4960645;28;20088;-87
2022/02/07 13:29:05;;;;;;;6.68;1.70;;;;;;;11.31;100.00;101722.34;4966061;28;20037;-87
2022/02/07 13:31:31;;;;;;;14.32;3.85;;;;;;;11.52;100.00;101722.84;4975920;28;20042;-87
2022/02/07 13:34:00;;;;;;;14.00;3.13;;;;;;;11.39;100.00;101690.09;4966469;28;20128;-87
2022/02/07 13:36:26;;;;;;;14.23;3.17;;;;;;;11.70;100.00;101720.09;5004795;28;20030;-87
2022/02/07 13:39:00;;;;;;;5.40;2.40;;;;;;;11.88;100.00;101706.56;4982140;28;20037;-88
2022/02/07 13:41:26;;;;;;;15.60;4.45;;;;;;;12.00;100.00;101724.13;4979241;28;20042;-88
2022/02/07 13:43:52;;;;;;;12.25;3.28;;;;;;;12.00;100.00;101710.66;4985518;28;20055;-87
2022/02/07 13:46:17;;;;;;;13.93;2.92;;;;;;;11.89;100.00;101700.19;4963446;28;20128;-86
2022/02/07 13:48:45;;;;;;;14.57;3.67;;;;;;;12.04;100.00;101725.53;4975224;28;20041;-86
2022/02/07 13:51:11;;;;;;;15.70;3.35;;;;;;;11.82;100.00;101681.06;4978359;28;20546;-87
2022/02/07 13:53:38;;;;;;;19.45;2.88;;;;;;;11.88;100.00;101693.94;5000178;28;20042;-87
2022/02/07 13:56:04;;;;;;;12.70;3.03;;;;;;;12.12;100.00;101711.22;4977069;28;20118;-87
2022/02/07 13:58:29;;;;;;;13.75;3.17;;;;;;;12.19;100.00;101706.84;4956860;28;20121;-88
2022/02/07 14:00:58;;;;;;;16.35;3.28;;;;;;;12.09;100.00;101709.69;4985706;28;20037;-87
2022/02/07 14:03:28;;;;;;;19.83;3.78;;;;;;;12.01;100.00;101711.50;4969740;28;20077;-87
2022/02/07 14:05:55;;;;;;;19.77;3.40;;;;;;;11.92;100.00;101696.31;5013025;28;20046;-87